Time;durP1;ratioP1;P1;durP2;ratioP2;P2;SDS_P1;SDS_P2;PMS_P1;PMS_P2;Temp;Humidity;BMP_temperature;BMP_pressure;BME280_temperature;BME280_humidity;BME280_pressure;Samples;Min_cycle;Max_cycle;Signal;HPM_P1;HPM_P2
2021/09/30 00:00:15;;;;;;;13.82;5.32;;;;;;;18.08;64.01;101330.44;5093912;28;20064;-60
2021/09/30 00:02:42;;;;;;;18.75;6.60;;;;;;;18.03;63.98;101333.41;5094541;28;20147;-60
2021/09/30 00:05:10;;;;;;;13.60;4.50;;;;;;;18.00;64.53;101326.38;5094941;28;20044;-61
2021/09/30 00:07:38;;;;;;;17.17;6.05;;;;;;;17.93;64.68;101317.47;5102714;28;20127;-61
2021/09/30 00:10:07;;;;;;;17.50;6.25;;;;;;;17.91;64.74;101316.94;5104761;28;20488;-62
2021/09/30 00:12:39;;;;;;;24.90;6.05;;;;;;;17.89;64.73;101320.06;5103700;27;20127;-60
2021/09/30 00:15:14;;;;;;;15.23;5.82;;;;;;;17.83;64.72;101312.84;5104331;28;20135;-61
2021/09/30 00:34:14;;;;;;;19.40;6.20;;;;;;;17.94;65.26;101322.78;5097500;28;20114;-61
2021/09/30 00:42:14;;;;;;;13.98;5.38;;;;;;;17.90;64.91;101321.75;5104709;28;20062;-60
2021/09/30 00:47:36;;;;;;;18.83;6.53;;;;;;;17.90;64.92;101326.56;5096001;28;20472;-60
2021/09/30 00:52:43;;;;;;;19.30;6.25;;;;;;;17.81;64.77;101325.59;5092149;28;20488;-63
2021/09/30 01:46:44;;;;;;;9.13;5.00;;;;;;;17.37;65.46;101284.56;5104263;28;20126;-62
2021/09/30 03:00:38;;;;;;;4.85;3.00;;;;;;;17.92;64.20;101231.03;5108483;28;20127;-59
2021/09/30 03:03:07;;;;;;;5.38;2.67;;;;;;;18.02;64.04;101250.59;5105265;28;20592;-61
2021/09/30 03:05:34;;;;;;;9.38;2.85;;;;;;;18.08;63.76;101242.84;5105432;28;20072;-62
2021/09/30 03:08:01;;;;;;;8.15;3.47;;;;;;;18.02;63.75;101241.25;5097059;28;20068;-62
2021/09/30 03:10:28;;;;;;;7.28;2.88;;;;;;;18.00;64.07;101244.41;5100056;28;20067;-60
2021/09/30 03:12:56;;;;;;;7.93;4.07;;;;;;;17.99;63.77;101246.41;5095041;28;20131;-60
2021/09/30 03:18:49;;;;;;;12.93;4.15;;;;;;;17.79;63.78;101241.16;5100814;28;20044;-58
2021/09/30 03:20:55;;;;;;;10.43;4.32;;;;;;;17.68;63.61;101236.84;5098717;28;20130;-59
2021/09/30 03:23:25;;;;;;;14.02;5.53;;;;;;;17.65;64.15;101243.09;5104393;27;20076;-59
2021/09/30 03:25:52;;;;;;;10.60;4.65;;;;;;;17.50;64.10;101242.25;5098121;27;20138;-59
2021/09/30 03:28:23;;;;;;;8.45;4.03;;;;;;;17.50;63.90;101238.56;5112721;28;20127;-59
2021/09/30 03:30:54;;;;;;;7.88;3.58;;;;;;;17.42;64.32;101237.28;5100622;28;20554;-59
2021/09/30 03:33:23;;;;;;;11.88;4.68;;;;;;;17.13;64.44;101198.03;5095511;28;20052;-59
2021/09/30 03:35:50;;;;;;;11.25;4.53;;;;;;;17.31;64.49;101238.63;5105723;28;20044;-59
2021/09/30 03:38:20;;;;;;;14.52;4.25;;;;;;;17.21;64.41;101228.34;5097442;28;20486;-59
2021/09/30 03:40:48;;;;;;;9.57;4.90;;;;;;;17.25;64.67;101232.22;5103392;28;20535;-59
2021/09/30 03:43:15;;;;;;;12.77;5.00;;;;;;;17.21;64.21;101236.00;5111693;28;20067;-60
2021/09/30 03:45:42;;;;;;;10.75;5.53;;;;;;;17.14;64.65;101236.38;5110684;27;20126;-59
2021/09/30 03:48:09;;;;;;;7.55;3.83;;;;;;;17.02;64.34;101233.19;5108466;28;20055;-59
2021/09/30 04:00:56;;;;;;;14.20;5.43;;;;;;;16.77;64.86;101203.44;5104398;27;20575;-59
2021/09/30 04:03:23;;;;;;;12.43;5.43;;;;;;;16.95;65.07;101232.75;5094863;28;20047;-59
2021/09/30 04:05:50;;;;;;;12.57;5.13;;;;;;;17.00;65.13;101241.97;5111678;28;20122;-58
2021/09/30 04:08:17;;;;;;;11.88;4.63;;;;;;;16.91;65.00;101228.88;5097417;28;20048;-59
2021/09/30 04:10:44;;;;;;;14.23;5.30;;;;;;;16.94;64.91;101225.44;5103835;28;20532;-57
2021/09/30 04:13:11;;;;;;;7.03;4.75;;;;;;;16.89;65.05;101237.66;5107018;28;20092;-57
2021/09/30 04:15:38;;;;;;;11.93;4.75;;;;;;;16.85;64.78;101232.91;5105609;28;20040;-58
2021/09/30 04:18:05;;;;;;;10.00;4.85;;;;;;;16.70;65.18;101220.69;5110729;28;20399;-61
2021/09/30 04:20:32;;;;;;;13.13;4.60;;;;;;;16.76;65.30;101235.59;5108286;28;20139;-61
2021/09/30 04:23:03;;;;;;;8.43;4.90;;;;;;;16.63;65.27;101216.59;5084061;28;20060;-61
2021/09/30 04:25:30;;;;;;;11.13;4.87;;;;;;;16.66;65.30;101235.72;5112012;28;20075;-61
2021/09/30 04:27:56;;;;;;;10.93;5.03;;;;;;;16.66;65.51;101241.38;5096674;28;20067;-59
2021/09/30 04:30:23;;;;;;;10.55;5.13;;;;;;;16.63;65.70;101248.44;5097575;28;20048;-60
2021/09/30 04:32:50;;;;;;;17.92;5.40;;;;;;;16.58;65.60;101240.91;5112200;28;20131;-64
2021/09/30 04:35:18;;;;;;;16.57;5.90;;;;;;;16.63;65.70;101237.16;5108480;28;20051;-61
2021/09/30 04:37:45;;;;;;;12.70;6.47;;;;;;;16.65;65.65;101254.63;5105006;28;20140;-60
2021/09/30 04:40:12;;;;;;;14.60;6.35;;;;;;;16.58;65.92;101225.94;5098834;28;20067;-59
2021/09/30 04:42:39;;;;;;;16.83;5.20;;;;;;;16.70;65.86;101242.44;5106112;28;20127;-59
2021/09/30 04:45:06;;;;;;;11.73;5.75;;;;;;;16.67;65.74;101232.59;5095381;28;20134;-60
2021/09/30 04:47:33;;;;;;;13.05;6.45;;;;;;;16.76;65.70;101242.06;5099826;27;20136;-60
2021/09/30 04:50:01;;;;;;;11.60;5.72;;;;;;;16.74;65.90;101244.34;5094749;28;20523;-60
2021/09/30 04:52:28;;;;;;;15.57;5.60;;;;;;;16.73;66.10;101248.28;5094642;28;20535;-64
2021/09/30 04:54:56;;;;;;;12.40;5.47;;;;;;;16.72;66.03;101240.16;5095031;28;20047;-64
2021/09/30 04:57:23;;;;;;;16.00;5.50;;;;;;;16.58;65.99;101215.53;5083220;28;20122;-65
2021/09/30 04:59:50;;;;;;;13.70;5.65;;;;;;;16.70;66.01;101229.16;5101659;28;20127;-60
2021/09/30 05:02:17;;;;;;;16.52;5.22;;;;;;;16.74;65.94;101227.44;5090140;28;20082;-60
2021/09/30 05:04:44;;;;;;;11.85;4.50;;;;;;;16.62;65.99;101218.56;5106568;28;20110;-60
2021/09/30 05:07:11;;;;;;;12.33;5.00;;;;;;;16.61;66.14;101233.81;5093236;28;20126;-65
2021/09/30 05:09:38;;;;;;;6.13;3.87;;;;;;;16.59;66.33;101236.94;5116465;27;20093;-67
2021/09/30 05:12:08;;;;;;;12.97;3.70;;;;;;;16.48;66.48;101212.88;5090806;28;20487;-68
2021/09/30 05:14:35;;;;;;;6.80;3.47;;;;;;;16.61;66.29;101228.16;5099333;28;20127;-67
2021/09/30 05:17:02;;;;;;;10.23;4.20;;;;;;;16.63;66.00;101220.25;5099143;28;20127;-59
2021/09/30 05:19:28;;;;;;;10.20;4.05;;;;;;;16.74;66.27;101235.88;5106660;28;20142;-60
2021/09/30 05:21:55;;;;;;;7.07;3.25;;;;;;;16.83;66.09;101235.22;5105463;28;20558;-66
2021/09/30 05:24:22;;;;;;;10.50;4.60;;;;;;;16.89;65.96;101239.59;5101972;28;20547;-64
2021/09/30 05:26:49;;;;;;;6.80;4.23;;;;;;;16.86;65.88;101234.63;5097418;28;20067;-67
2021/09/30 05:29:16;;;;;;;16.52;5.63;;;;;;;16.87;65.89;101242.75;5099511;28;20082;-68
2021/09/30 05:31:42;;;;;;;9.82;4.65;;;;;;;16.81;65.89;101239.16;5100924;28;20123;-60
2021/09/30 05:34:09;;;;;;;8.48;4.13;;;;;;;16.76;65.54;101242.06;5111192;28;20040;-62
2021/09/30 05:36:36;;;;;;;10.73;4.70;;;;;;;16.80;65.47;101251.59;5103034;27;20126;-62
2021/09/30 05:39:03;;;;;;;9.82;4.63;;;;;;;16.76;65.65;101249.72;5099838;28;20567;-60
2021/09/30 05:41:32;;;;;;;10.15;4.60;;;;;;;16.74;65.65;101255.63;5100195;28;20037;-62
2021/09/30 05:44:07;;;;;;;12.07;4.33;;;;;;;16.68;65.34;101245.53;5111850;28;20101;-59
2021/09/30 05:46:54;;;;;;;9.10;4.05;;;;;;;16.61;65.87;101230.97;5083712;28;20043;-60
2021/09/30 05:49:24;;;;;;;9.37;4.40;;;;;;;16.61;65.80;101230.97;5089673;28;20126;-62
2021/09/30 05:51:51;;;;;;;10.43;4.68;;;;;;;16.70;65.86;101246.09;5090643;28;20479;-71
2021/09/30 05:54:18;;;;;;;12.32;5.35;;;;;;;16.63;66.09;101236.34;5093454;28;20044;-68
2021/09/30 05:56:45;;;;;;;8.50;4.82;;;;;;;16.70;65.68;101245.25;5097858;28;20472;-70
2021/09/30 05:59:16;;;;;;;11.52;4.70;;;;;;;16.68;65.84;101259.63;5094021;28;20138;-60
2021/09/30 06:10:13;;;;;;;10.98;4.22;;;;;;;16.54;66.41;101244.63;5106058;28;20075;-63
2021/09/30 06:12:50;;;;;;;8.10;4.43;;;;;;;16.52;66.71;101246.94;5092396;28;20131;-62
2021/09/30 06:15:26;;;;;;;9.80;4.30;;;;;;;16.18;66.61;101197.22;5107468;28;20142;-62
2021/09/30 06:17:55;;;;;;;9.73;4.77;;;;;;;16.49;66.52;101247.53;5099670;27;20466;-62
2021/09/30 06:20:22;;;;;;;10.20;4.80;;;;;;;16.53;66.56;101259.88;5105463;28;20162;-62
2021/09/30 06:22:49;;;;;;;9.95;5.07;;;;;;;16.40;66.77;101238.06;5097432;27;20128;-63
2021/09/30 06:25:16;;;;;;;6.57;4.18;;;;;;;16.56;66.78;101254.47;5106712;28;20139;-63
2021/09/30 06:27:43;;;;;;;13.27;5.37;;;;;;;16.58;66.68;101256.97;5102258;28;20134;-62
2021/09/30 06:30:11;;;;;;;14.80;5.60;;;;;;;16.62;66.69;101260.03;5103268;28;20071;-62
2021/09/30 06:32:38;;;;;;;12.68;5.07;;;;;;;16.34;66.57;101226.88;5095008;28;20127;-62
2021/09/30 06:35:05;;;;;;;9.90;4.73;;;;;;;16.55;66.39;101258.44;5100817;28;20123;-64
2021/09/30 06:37:32;;;;;;;20.47;9.63;;;;;;;16.48;66.54;101268.41;5092113;28;20082;-68
2021/09/30 06:39:58;;;;;;;14.77;7.28;;;;;;;16.41;66.48;101270.75;5102003;28;20079;-69
2021/09/30 06:42:25;;;;;;;15.67;8.10;;;;;;;16.15;66.78;101251.34;5100136;28;20130;-64
2021/09/30 06:44:52;;;;;;;24.83;16.30;;;;;;;16.23;66.58;101269.56;5094429;28;20075;-62
2021/09/30 06:47:19;;;;;;;33.83;19.83;;;;;;;16.23;66.61;101272.38;5099435;28;20052;-63
2021/09/30 06:49:46;;;;;;;15.50;9.20;;;;;;;16.10;67.01;101272.00;5101186;28;20484;-63
2021/09/30 06:52:29;;;;;;;12.87;7.33;;;;;;;16.00;66.81;101276.88;5103492;28;20044;-62
2021/09/30 06:54:55;;;;;;;12.80;6.30;;;;;;;15.99;67.08;101292.13;5095494;28;20155;-61
2021/09/30 06:57:27;;;;;;;10.23;5.50;;;;;;;15.92;66.98;101289.66;5092446;28;20123;-61
2021/09/30 06:59:57;;;;;;;11.67;7.10;;;;;;;15.78;67.11;101278.25;5092368;28;20138;-61
2021/09/30 07:02:24;;;;;;;9.30;5.83;;;;;;;15.82;67.42;101273.69;5105024;28;20138;-61
2021/09/30 07:04:51;;;;;;;8.50;5.73;;;;;;;15.91;67.67;101281.53;5111454;28;20071;-62
2021/09/30 07:07:18;;;;;;;8.47;5.00;;;;;;;16.16;67.50;101300.09;5097760;28;20127;-62
2021/09/30 07:09:46;;;;;;;7.77;4.60;;;;;;;16.29;67.32;101288.09;5108243;28;20082;-61
2021/09/30 07:12:13;;;;;;;8.07;4.87;;;;;;;16.40;67.04;101281.19;5101332;28;20389;-62
2021/09/30 07:14:40;;;;;;;10.03;5.43;;;;;;;16.41;66.92;101273.56;5092307;28;20586;-62
2021/09/30 07:17:08;;;;;;;12.52;5.95;;;;;;;16.54;66.47;101293.38;5096060;28;20093;-62
2021/09/30 07:19:36;;;;;;;13.77;5.67;;;;;;;16.59;66.37;101278.41;5104030;28;20048;-63
2021/09/30 07:22:05;;;;;;;13.52;5.60;;;;;;;16.64;66.43;101272.66;5112990;28;20126;-63
2021/09/30 07:24:33;;;;;;;14.17;6.07;;;;;;;16.80;66.02;101287.44;5092384;28;20122;-63
2021/09/30 07:27:00;;;;;;;11.45;4.95;;;;;;;16.83;65.93;101274.72;5096979;28;20291;-63
2021/09/30 07:29:27;;;;;;;9.30;4.45;;;;;;;16.90;65.99;101263.88;5105534;28;20196;-62
2021/09/30 07:31:54;;;;;;;11.52;5.85;;;;;;;17.15;65.59;101271.91;5103178;28;20046;-63
2021/09/30 07:34:20;;;;;;;9.68;4.85;;;;;;;17.45;65.89;101286.66;5097080;28;20447;-63
2021/09/30 07:36:47;;;;;;;8.57;3.95;;;;;;;17.64;65.17;101283.78;5092123;28;20090;-63
2021/09/30 07:39:16;;;;;;;13.25;6.47;;;;;;;17.88;64.84;101297.75;5098842;28;20079;-62
2021/09/30 07:41:46;;;;;;;13.43;6.37;;;;;;;17.93;64.46;101270.25;5073724;28;20131;-63
2021/09/30 07:44:13;;;;;;;11.40;5.78;;;;;;;18.06;64.62;101279.91;5091423;28;20356;-62
2021/09/30 07:46:42;;;;;;;9.90;4.68;;;;;;;18.44;63.96;101285.34;5100770;28;20123;-62
2021/09/30 07:49:09;;;;;;;13.07;4.68;;;;;;;18.74;63.66;101288.69;5083679;28;20078;-61
2021/09/30 07:51:37;;;;;;;9.98;4.63;;;;;;;19.08;63.19;101289.00;5098359;28;20039;-62
2021/09/30 07:54:05;;;;;;;10.13;4.45;;;;;;;19.39;62.42;101289.06;5096489;28;20143;-62
2021/09/30 07:56:37;;;;;;;11.80;5.25;;;;;;;19.85;62.05;101287.84;5103624;28;20044;-64
2021/09/30 07:59:04;;;;;;;12.75;4.25;;;;;;;20.38;60.88;101279.59;5103521;28;20130;-64
2021/09/30 08:01:31;;;;;;;14.65;6.03;;;;;;;20.60;60.26;101273.81;5113599;28;20075;-64
2021/09/30 08:03:59;;;;;;;17.08;6.53;;;;;;;20.96;59.54;101275.53;5114802;28;20043;-64
2021/09/30 08:06:27;;;;;;;14.52;8.02;;;;;;;21.26;58.76;101276.50;5115503;28;20043;-64
2021/09/30 08:08:54;;;;;;;18.75;6.65;;;;;;;21.58;58.56;101269.47;5099586;28;20115;-65
2021/09/30 08:11:23;;;;;;;16.40;6.45;;;;;;;21.96;57.27;101269.53;5102185;27;20123;-64
2021/09/30 08:13:51;;;;;;;20.00;7.40;;;;;;;22.40;56.39;101280.75;5104915;28;20115;-64
2021/09/30 08:16:19;;;;;;;13.13;6.13;;;;;;;22.80;55.87;101283.16;5102810;28;20047;-64
2021/09/30 08:18:47;;;;;;;17.80;7.30;;;;;;;23.35;54.68;101291.47;5087588;28;20051;-64
2021/09/30 08:21:17;;;;;;;13.45;6.28;;;;;;;23.95;54.05;101296.88;5114690;28;20048;-65
2021/09/30 08:23:45;;;;;;;15.43;6.20;;;;;;;24.48;53.16;101286.47;5107627;28;20539;-64
2021/09/30 08:26:13;;;;;;;14.48;6.78;;;;;;;24.97;51.95;101295.84;5103207;28;20086;-64
2021/09/30 08:28:40;;;;;;;18.80;6.13;;;;;;;25.49;50.34;101294.13;5094346;28;20080;-65
2021/09/30 08:31:08;;;;;;;17.38;5.78;;;;;;;25.94;49.93;101298.69;5095572;28;20109;-65
2021/09/30 08:33:40;;;;;;;10.77;5.70;;;;;;;26.37;49.11;101294.91;5097881;28;20484;-64
2021/09/30 08:36:10;;;;;;;12.82;5.63;;;;;;;26.85;48.51;101295.69;5106195;28;20087;-65
2021/09/30 08:38:37;;;;;;;;;;;;;;;26.98;50.75;101289.84;5109941;28;20040;-64
2021/09/30 08:41:07;;;;;;;7.22;3.20;;;;;;;27.63;46.90;101290.84;5108777;28;20272;-64
2021/09/30 08:43:34;;;;;;;12.38;5.50;;;;;;;28.22;46.19;101303.06;5103397;28;20044;-65
2021/09/30 08:46:02;;;;;;;12.48;5.20;;;;;;;28.69;44.85;101303.88;5105172;28;20478;-64
2021/09/30 08:48:29;;;;;;;13.27;5.78;;;;;;;28.98;43.61;101288.69;5097261;28;20086;-64
2021/09/30 08:50:56;;;;;;;11.85;4.40;;;;;;;29.52;42.56;101295.16;5110465;27;20147;-65
2021/09/30 08:53:22;;;;;;;6.57;2.63;;;;;;;29.84;41.67;101294.72;5097336;28;20119;-64
2021/09/30 08:55:49;;;;;;;4.03;2.20;;;;;;;29.51;40.52;101282.00;5094025;28;20126;-65
2021/09/30 08:58:16;;;;;;;12.60;4.00;;;;;;;29.68;40.73;101292.13;5077326;28;20044;-65
2021/09/30 09:00:44;;;;;;;8.07;3.83;;;;;;;29.92;40.02;101270.56;5112408;28;20105;-65
2021/09/30 09:03:11;;;;;;;11.77;4.25;;;;;;;30.50;40.15;101297.88;5093959;28;20438;-64
2021/09/30 09:05:40;;;;;;;7.20;3.42;;;;;;;30.91;38.95;101278.41;5094622;28;20085;-65
2021/09/30 09:08:09;;;;;;;6.88;3.45;;;;;;;31.33;38.22;101289.38;5085430;28;20040;-65
2021/09/30 09:10:37;;;;;;;;;;;;;;;31.30;40.96;101290.13;5097858;28;20043;-64
2021/09/30 09:13:16;;;;;;;16.17;3.22;;;;;;;31.65;38.21;101285.75;5124766;27;19966;-64
2021/09/30 09:15:44;;;;;;;;;;;;;;;31.66;41.27;101298.13;5125700;27;20071;-64
2021/09/30 09:18:26;;;;;;;4.75;2.72;;;;;;;32.07;38.69;101284.25;5107311;28;19989;-65
2021/09/30 09:21:04;;;;;;;5.53;2.60;;;;;;;32.43;37.07;101288.00;5112744;28;20095;-65
2021/09/30 09:23:33;;;;;;;4.80;2.70;;;;;;;32.71;35.58;101281.34;5112477;28;20122;-65
2021/09/30 09:26:15;;;;;;;4.55;2.72;;;;;;;32.85;35.49;101274.69;5112202;28;20544;-65
2021/09/30 09:29:10;;;;;;;7.57;2.67;;;;;;;32.93;35.17;101281.31;5105720;28;20048;-65
2021/09/30 09:31:41;;;;;;;7.80;3.30;;;;;;;32.97;34.23;101282.16;5108294;28;20496;-65
2021/09/30 09:34:31;;;;;;;8.18;2.58;;;;;;;32.87;34.61;101283.81;5111659;28;20051;-64
2021/09/30 09:37:24;;;;;;;5.40;3.00;;;;;;;33.03;34.45;101275.53;5105443;28;20130;-64
2021/09/30 09:39:54;;;;;;;6.30;2.47;;;;;;;33.35;33.21;101294.03;5102963;28;20051;-65
2021/09/30 09:42:27;;;;;;;4.13;2.47;;;;;;;33.50;33.02;101275.34;5113246;28;20127;-66
2021/09/30 09:45:02;;;;;;;4.10;3.03;;;;;;;33.72;33.05;101279.78;5110207;28;20127;-66
2021/09/30 09:47:35;;;;;;;4.72;2.63;;;;;;;33.91;32.36;101283.38;5100552;28;20119;-65
2021/09/30 09:50:24;;;;;;;5.28;3.00;;;;;;;33.87;33.04;101286.31;5111631;28;20459;-65
2021/09/30 09:52:58;;;;;;;5.43;2.90;;;;;;;34.00;32.39;101297.41;5102891;28;20131;-65
2021/09/30 09:55:35;;;;;;;3.67;2.00;;;;;;;33.84;31.63;101284.25;5096214;27;20051;-65
2021/09/30 09:58:08;;;;;;;6.32;2.80;;;;;;;33.12;32.82;101297.41;5109495;28;20044;-65
2021/09/30 10:00:55;;;;;;;6.65;3.03;;;;;;;32.45;33.16;101302.03;5108132;28;20043;-65
2021/09/30 10:03:28;;;;;;;5.78;2.67;;;;;;;32.42;33.65;101285.53;5112750;28;20047;-65
2021/09/30 10:05:56;;;;;;;7.20;2.88;;;;;;;32.82;32.81;101289.19;5112821;28;20122;-65
2021/09/30 10:08:23;;;;;;;5.38;2.72;;;;;;;33.01;32.86;101288.75;5093755;28;20131;-65
2021/09/30 10:10:53;;;;;;;5.65;2.03;;;;;;;33.37;31.96;101286.56;5092565;28;20056;-64
2021/09/30 10:13:21;;;;;;;4.85;2.63;;;;;;;33.52;31.48;101269.97;5093326;28;20108;-64
2021/09/30 10:15:53;;;;;;;5.05;1.80;;;;;;;33.86;31.33;101286.75;5096318;28;20043;-64
2021/09/30 10:18:22;;;;;;;5.38;2.35;;;;;;;34.06;31.01;101276.28;5112337;28;20079;-65
2021/09/30 10:20:54;;;;;;;5.18;1.90;;;;;;;34.22;30.67;101281.53;5109124;28;20055;-65
2021/09/30 10:23:27;;;;;;;5.53;2.10;;;;;;;34.36;30.37;101278.53;5117300;27;20071;-66
2021/09/30 10:26:06;;;;;;;4.68;2.38;;;;;;;34.52;29.98;101274.28;5108987;28;20139;-65
2021/09/30 10:28:40;;;;;;;3.72;2.75;;;;;;;34.71;29.89;101282.38;5112183;28;20044;-66
2021/09/30 10:31:37;;;;;;;5.07;2.15;;;;;;;34.78;30.34;101278.56;5092357;28;20131;-66
2021/09/30 10:34:09;;;;;;;3.35;1.88;;;;;;;35.00;29.00;101274.16;5080895;28;20040;-65
2021/09/30 10:36:44;;;;;;;5.47;2.60;;;;;;;35.06;28.86;101281.19;5084256;28;20047;-66
2021/09/30 10:39:23;;;;;;;5.88;2.28;;;;;;;35.05;29.35;101275.81;5109104;28;20132;-65
2021/09/30 10:41:51;;;;;;;;;;;;;;;34.87;31.12;101281.78;5095280;28;20145;-65
2021/09/30 10:44:23;;;;;;;6.07;2.10;;;;;;;35.12;29.40;101270.75;5107067;28;20126;-65
2021/09/30 10:46:53;;;;;;;4.07;2.28;;;;;;;35.33;28.89;101277.53;5077826;28;20123;-65
2021/09/30 10:49:47;;;;;;;3.15;2.08;;;;;;;35.48;28.61;101266.56;5110988;28;20130;-65
2021/09/30 10:52:27;;;;;;;4.32;2.40;;;;;;;35.53;28.60;101271.94;5092375;28;20463;-65
2021/09/30 10:55:00;;;;;;;5.22;2.08;;;;;;;35.68;28.23;101289.97;5092331;28;20052;-65
2021/09/30 10:57:32;;;;;;;4.85;1.90;;;;;;;35.84;27.95;101264.00;5092091;28;20238;-65
2021/09/30 11:00:00;;;;;;;5.13;2.05;;;;;;;35.93;27.91;101261.34;5099940;28;20429;-66
2021/09/30 11:02:59;;;;;;;2.83;1.85;;;;;;;36.15;28.13;101261.88;5112442;28;20092;-64
2021/09/30 11:05:30;;;;;;;4.30;2.55;;;;;;;36.72;26.28;101265.84;5111064;28;20043;-65
2021/09/30 11:08:33;;;;;;;5.00;2.55;;;;;;;38.16;25.53;101256.53;5098081;28;20131;-65
2021/09/30 11:11:04;;;;;;;5.80;2.47;;;;;;;38.93;24.07;101256.19;5101798;28;20048;-65
2021/09/30 11:13:38;;;;;;;6.43;2.22;;;;;;;38.75;24.36;101266.25;5092072;28;20151;-65
2021/09/30 11:16:26;;;;;;;4.45;2.47;;;;;;;38.50;24.38;101246.50;5105651;28;20123;-65
2021/09/30 11:18:54;;;;;;;4.13;2.70;;;;;;;38.37;24.45;101245.63;5073175;28;20043;-66
2021/09/30 11:21:37;;;;;;;4.68;2.45;;;;;;;38.37;24.66;101251.44;5090105;28;20135;-65
2021/09/30 11:24:19;;;;;;;7.40;3.15;;;;;;;38.40;23.98;101239.69;5095411;28;20134;-66
2021/09/30 11:26:49;;;;;;;4.60;2.13;;;;;;;38.57;24.15;101242.59;5082558;28;20052;-65
2021/09/30 11:29:19;;;;;;;4.18;2.40;;;;;;;38.77;23.96;101234.50;5104085;28;20052;-65
2021/09/30 11:31:48;;;;;;;9.25;2.92;;;;;;;39.00;22.79;101235.56;5094107;28;20084;-64
2021/09/30 11:34:20;;;;;;;7.18;2.30;;;;;;;39.12;23.04;101220.19;5109422;28;20075;-66
2021/09/30 11:36:47;;;;;;;3.75;2.55;;;;;;;39.34;22.41;101211.59;5115120;28;20130;-65
2021/09/30 11:39:14;;;;;;;3.67;2.40;;;;;;;39.83;21.93;101223.00;5102793;28;20132;-65
2021/09/30 11:41:45;;;;;;;4.20;2.00;;;;;;;40.16;21.56;101223.59;5099817;28;20454;-65
2021/09/30 11:44:19;;;;;;;4.10;2.50;;;;;;;40.20;21.46;101208.81;5107823;28;20078;-67
2021/09/30 11:46:54;;;;;;;3.83;2.67;;;;;;;40.54;21.20;101205.09;5113055;28;20071;-63
2021/09/30 11:49:21;;;;;;;7.18;2.38;;;;;;;40.84;20.74;101221.19;5108468;28;20052;-64
2021/09/30 11:51:54;;;;;;;2.80;1.80;;;;;;;41.27;19.91;101209.94;5100223;28;20075;-64
2021/09/30 11:54:33;;;;;;;5.72;2.22;;;;;;;41.67;19.65;101201.22;5108317;28;20098;-62
2021/09/30 11:57:01;;;;;;;4.28;1.77;;;;;;;41.94;19.04;101205.59;5095556;28;20051;-68
2021/09/30 11:59:29;;;;;;;2.42;2.08;;;;;;;42.22;18.85;101177.13;5102007;28;20531;-65
2021/09/30 12:02:02;;;;;;;4.95;2.85;;;;;;;42.66;18.47;101195.28;5114725;28;20463;-66
2021/09/30 12:04:50;;;;;;;6.30;2.58;;;;;;;42.91;17.86;101188.31;5112386;28;20491;-65
2021/09/30 12:07:20;;;;;;;4.88;2.92;;;;;;;43.24;18.32;101193.47;5110837;28;20452;-63
2021/09/30 12:09:49;;;;;;;8.02;2.70;;;;;;;43.32;18.30;101202.75;5115607;28;20448;-65
2021/09/30 12:12:16;;;;;;;5.35;2.70;;;;;;;43.41;17.45;101196.88;5100214;28;20109;-65
2021/09/30 12:14:52;;;;;;;6.53;2.58;;;;;;;43.39;18.18;101194.44;5094969;28;20083;-63
2021/09/30 12:17:20;;;;;;;2.42;2.13;;;;;;;43.57;17.61;101192.75;5098797;28;20555;-65
2021/09/30 12:19:52;;;;;;;3.42;2.25;;;;;;;43.99;17.14;101178.03;5098255;28;20515;-62
2021/09/30 12:22:25;;;;;;;4.18;2.00;;;;;;;44.13;16.72;101177.28;5107722;27;20540;-63
2021/09/30 12:24:54;;;;;;;6.40;1.98;;;;;;;43.91;16.99;101183.47;5117744;27;20047;-63
2021/09/30 12:27:25;;;;;;;3.47;2.00;;;;;;;44.09;16.84;101167.00;5103360;28;20131;-62
2021/09/30 12:29:53;;;;;;;5.15;2.60;;;;;;;44.39;16.26;101159.94;5097765;28;20514;-62
2021/09/30 12:32:27;;;;;;;4.63;1.90;;;;;;;44.18;16.36;101161.06;5096185;28;20554;-64
2021/09/30 12:35:00;;;;;;;2.20;1.67;;;;;;;44.36;16.37;101163.91;5098040;28;20460;-64
2021/09/30 12:37:45;;;;;;;5.45;2.53;;;;;;;43.70;17.46;101155.13;5101897;28;20118;-64
2021/09/30 12:40:20;;;;;;;4.80;2.70;;;;;;;43.01;17.51;101137.03;5095809;28;20052;-65
2021/09/30 12:43:07;;;;;;;5.15;2.38;;;;;;;42.72;18.06;101157.31;5095272;28;20432;-63
2021/09/30 12:45:46;;;;;;;6.03;2.35;;;;;;;41.91;18.69;101145.78;5101873;28;20093;-64
2021/09/30 12:48:16;;;;;;;8.60;2.78;;;;;;;40.43;19.93;101149.88;5099663;28;20127;-63
2021/09/30 12:50:49;;;;;;;4.82;2.95;;;;;;;39.14;20.94;101147.50;5106720;28;20126;-63
2021/09/30 12:53:19;;;;;;;6.88;2.72;;;;;;;38.47;21.37;101129.91;5114645;28;20462;-63
2021/09/30 12:55:48;;;;;;;6.38;2.35;;;;;;;38.88;21.72;101128.31;5109299;28;20131;-61
2021/09/30 12:58:27;;;;;;;;;;;;;;;39.60;21.11;101126.88;5108888;28;20119;-61
2021/09/30 13:00:56;;;;;;;6.22;3.10;;;;;;;39.05;21.49;101126.94;5107547;28;19967;-62
2021/09/30 13:03:25;;;;;;;5.28;2.50;;;;;;;38.60;22.03;101139.50;5098119;28;20043;-62
2021/09/30 13:05:56;;;;;;;4.37;2.27;;;;;;;37.20;23.21;101124.75;5096220;28;20105;-61
2021/09/30 13:08:37;;;;;;;6.60;2.33;;;;;;;36.01;24.54;101129.22;5100710;28;20375;-61
2021/09/30 13:11:20;;;;;;;6.97;2.42;;;;;;;34.32;25.90;101117.44;5113632;28;20130;-60
2021/09/30 13:14:13;;;;;;;5.28;2.30;;;;;;;32.88;27.71;101116.84;5097918;28;20543;-60
2021/09/30 13:16:44;;;;;;;7.55;2.13;;;;;;;31.91;28.85;101119.16;5111453;28;20127;-60
2021/09/30 13:19:11;;;;;;;9.93;3.20;;;;;;;31.03;30.37;101109.94;5099734;28;20040;-60
2021/09/30 13:22:02;;;;;;;5.00;2.17;;;;;;;30.09;31.09;101096.28;5102556;27;20055;-60
2021/09/30 13:24:34;;;;;;;5.05;2.25;;;;;;;29.45;32.52;101093.69;5104854;28;20126;-60
2021/09/30 13:27:02;;;;;;;9.73;2.65;;;;;;;28.97;32.72;101085.75;5113900;28;20048;-60
2021/09/30 13:29:45;;;;;;;5.13;2.10;;;;;;;28.46;33.96;101082.69;5113722;28;20040;-60
2021/09/30 13:32:14;;;;;;;3.17;2.08;;;;;;;28.16;34.17;101085.50;5109807;28;20122;-60
2021/09/30 13:34:41;;;;;;;10.90;2.33;;;;;;;27.84;34.47;101074.38;5113732;28;20534;-61
2021/09/30 13:37:08;;;;;;;4.25;2.00;;;;;;;27.52;35.32;101073.81;5116830;27;20074;-61
2021/09/30 13:39:35;;;;;;;9.80;2.33;;;;;;;27.25;35.85;101075.78;5088991;28;20122;-59
2021/09/30 13:42:04;;;;;;;5.43;2.25;;;;;;;27.10;36.38;101084.09;5094105;28;20050;-60
2021/09/30 13:44:31;;;;;;;7.35;2.20;;;;;;;26.87;37.07;101071.78;5094974;28;22136;-61
2021/09/30 13:46:58;;;;;;;3.92;2.17;;;;;;;26.69;37.18;101077.16;5105623;28;20068;-61
2021/09/30 13:49:24;;;;;;;3.55;2.20;;;;;;;26.46;37.86;101074.19;5099758;28;20083;-61
2021/09/30 13:51:51;;;;;;;8.05;1.92;;;;;;;26.43;38.00;101083.56;5101118;28;20553;-61
2021/09/30 13:54:18;;;;;;;3.30;1.48;;;;;;;26.19;38.60;101076.06;5092994;28;20047;-61
2021/09/30 13:56:45;;;;;;;4.25;1.65;;;;;;;26.05;38.21;101059.41;5104415;28;20079;-61
2021/09/30 13:59:12;;;;;;;4.10;1.30;;;;;;;25.93;38.55;101028.03;5104303;28;20127;-61
2021/09/30 14:01:59;;;;;;;3.97;2.13;;;;;;;25.68;38.61;101022.53;5105526;28;20044;-60
2021/09/30 14:04:27;;;;;;;5.70;1.83;;;;;;;25.82;39.24;101062.13;5095085;28;20096;-61
2021/09/30 14:06:55;;;;;;;3.65;1.73;;;;;;;25.77;39.58;101054.63;5099749;28;20551;-61
2021/09/30 14:09:23;;;;;;;8.05;1.50;;;;;;;25.66;39.85;101042.09;5092943;28;20075;-62
2021/09/30 14:11:50;;;;;;;3.40;1.70;;;;;;;25.65;39.66;101043.31;5101897;28;20114;-61
2021/09/30 14:14:18;;;;;;;5.50;1.90;;;;;;;25.67;39.79;101043.75;5107287;28;20130;-61
2021/09/30 14:16:48;;;;;;;4.30;1.42;;;;;;;25.61;40.16;101033.00;5101132;28;20075;-61
2021/09/30 14:19:20;;;;;;;3.45;1.45;;;;;;;25.51;40.01;101020.09;5102139;28;20491;-60
2021/09/30 14:21:47;;;;;;;3.15;1.60;;;;;;;25.51;39.48;101034.38;5091916;28;20095;-61
2021/09/30 14:24:13;;;;;;;5.28;1.73;;;;;;;25.35;40.21;101024.97;5092030;28;20515;-61
2021/09/30 14:26:40;;;;;;;5.70;3.13;;;;;;;25.43;40.52;101029.66;5100362;28;20079;-60
2021/09/30 14:29:07;;;;;;;10.30;1.58;;;;;;;25.35;40.42;101028.66;5109120;28;20123;-61
2021/09/30 14:31:34;;;;;;;2.80;1.35;;;;;;;25.21;40.46;101026.28;5101582;28;20130;-61